Time;durP1;ratioP1;P1;durP2;ratioP2;P2;SDS_P1;SDS_P2;PMS_P1;PMS_P2;Temp;Humidity;BMP_temperature;BMP_pressure;BME280_temperature;BME280_humidity;BME280_pressure;Samples;Min_cycle;Max_cycle;Signal;HPM_P1;HPM_P2
2022/05/13 00:01:09;;;;;;;0.40;0.40;;;;;;;8.98;71.89;97633.75;4863483;29;20053;-83
2022/05/13 00:03:48;;;;;;;0.50;0.50;;;;;;;9.04;71.40;97648.81;4880025;29;20057;-83
2022/05/13 00:06:30;;;;;;;0.45;0.45;;;;;;;8.92;71.47;97619.47;4879881;29;20060;-83
2022/05/13 00:09:12;;;;;;;0.50;0.50;;;;;;;9.09;71.05;97656.91;4880124;29;20052;-83
2022/05/13 00:11:56;;;;;;;0.50;0.50;;;;;;;9.15;71.15;97660.41;4879716;29;20505;-83
2022/05/13 00:15:37;;;;;;;;;;;;;;;;;;;;;
2022/05/13 00:19:15;;;;;;;0.50;0.50;;;;;;;9.18;70.72;97655.28;4865430;29;20045;-84
2022/05/13 00:23:24;;;;;;;0.50;0.50;;;;;;;9.19;70.70;97669.56;4807031;29;20438;-84
2022/05/13 00:26:24;;;;;;;0.50;0.50;;;;;;;9.20;70.78;97653.16;4821918;29;20145;-83
2022/05/13 00:29:08;;;;;;;0.50;0.50;;;;;;;9.21;70.64;97657.44;4822202;29;20054;-83
2022/05/13 00:31:43;;;;;;;0.40;0.40;;;;;;;9.27;69.30;97634.03;4807610;29;20050;-84
2022/05/13 00:34:24;;;;;;;0.43;0.43;;;;;;;9.27;69.43;97650.19;4821774;29;20054;-84
2022/05/13 00:37:26;;;;;;;0.50;0.50;;;;;;;9.27;69.37;97652.88;4821599;29;20058;-84
2022/05/13 00:40:21;;;;;;;0.50;0.50;;;;;;;9.25;69.20;97646.97;4821979;29;20149;-84
2022/05/13 00:44:03;;;;;;;0.50;0.50;;;;;;;9.32;69.08;97663.66;4803652;29;20055;-83
2022/05/13 00:47:01;;;;;;;0.50;0.50;;;;;;;9.28;69.28;97673.34;4788828;29;20066;-83
2022/05/13 00:49:46;;;;;;;0.50;0.50;;;;;;;9.26;69.52;97656.63;4804253;29;20055;-83
2022/05/13 00:52:42;;;;;;;0.50;0.50;;;;;;;9.30;70.11;97663.13;4811206;29;20074;-83
2022/05/13 00:58:59;;;;;;;0.40;0.40;;;;;;;9.25;69.83;97685.44;4817334;29;20083;-84
2022/05/13 01:01:44;;;;;;;0.50;0.50;;;;;;;9.23;70.04;97690.28;4825807;29;20391;-84
2022/05/13 01:04:26;;;;;;;0.50;0.50;;;;;;;9.23;69.77;97676.03;4824874;29;20066;-83
2022/05/13 01:07:28;;;;;;;0.50;0.50;;;;;;;9.24;69.44;97694.63;4823508;29;20218;-84
2022/05/13 01:10:16;;;;;;;0.50;0.50;;;;;;;9.26;68.99;97691.63;4842038;29;20081;-83
2022/05/13 01:12:55;;;;;;;0.50;0.50;;;;;;;9.25;68.71;97690.84;4826690;29;20050;-83
2022/05/13 01:15:51;;;;;;;0.50;0.50;;;;;;;9.21;68.35;97681.66;4826993;29;20061;-83
2022/05/13 01:18:31;;;;;;;0.40;0.40;;;;;;;9.20;68.14;97687.34;4841781;29;20064;-83
2022/05/13 01:21:44;;;;;;;0.40;0.40;;;;;;;9.13;68.18;97692.97;4842222;29;20049;-84
2022/05/13 01:24:25;;;;;;;0.40;0.40;;;;;;;9.06;67.52;97668.19;4841713;29;20058;-83
2022/05/13 01:27:00;;;;;;;0.50;0.50;;;;;;;8.93;68.11;97706.38;4841774;29;20054;-84
2022/05/13 01:30:13;;;;;;;0.50;0.50;;;;;;;8.93;67.97;97723.34;4836879;29;20134;-83
2022/05/13 01:33:18;;;;;;;0.50;0.50;;;;;;;8.94;67.39;97683.78;4812212;29;20084;-83
2022/05/13 01:36:12;;;;;;;0.55;0.55;;;;;;;9.03;67.25;97695.66;4841607;29;20148;-84
2022/05/13 01:39:32;;;;;;;0.50;0.50;;;;;;;9.03;67.40;97693.75;4841455;29;20133;-83
2022/05/13 01:42:46;;;;;;;0.50;0.50;;;;;;;9.03;67.23;97701.81;4792601;29;20055;-84
2022/05/13 01:45:44;;;;;;;0.50;0.50;;;;;;;9.03;66.94;97699.13;4769639;30;20055;-83
2022/05/13 01:48:39;;;;;;;0.50;0.50;;;;;;;9.06;66.47;97709.41;4794924;30;20051;-83
2022/05/13 01:51:29;;;;;;;0.50;0.50;;;;;;;9.06;66.34;97704.00;4784813;30;20067;-83
2022/05/13 01:54:33;;;;;;;0.50;0.50;;;;;;;9.03;66.85;97706.41;4785177;30;20051;-83
2022/05/13 01:57:45;;;;;;;0.50;0.50;;;;;;;8.92;67.74;97700.19;4748825;30;20060;-84
2022/05/13 02:00:34;;;;;;;0.50;0.50;;;;;;;8.98;68.35;97723.34;4748797;30;20091;-83
2022/05/13 02:04:12;;;;;;;0.40;0.40;;;;;;;8.94;68.97;97719.59;4748699;30;20122;-84
2022/05/13 02:07:39;;;;;;;0.50;0.50;;;;;;;8.90;68.02;97718.50;4736358;30;20064;-83
2022/05/13 02:10:19;;;;;;;0.50;0.50;;;;;;;8.93;67.25;97709.06;4748522;30;20560;-84
2022/05/13 02:16:07;;;;;;;0.50;0.50;;;;;;;8.90;67.31;97740.81;5039165;27;1828843;-84
2022/05/13 02:19:08;;;;;;;0.50;0.50;;;;;;;8.83;67.33;97717.91;5086561;28;20395;-84
2022/05/13 02:22:07;;;;;;;0.50;0.50;;;;;;;8.92;67.19;97726.31;5088782;28;20055;-84
2022/05/13 02:25:06;;;;;;;0.50;0.50;;;;;;;8.90;67.24;97730.06;5088996;28;20143;-84
2022/05/13 02:37:30;;;;;;;0.50;0.50;;;;;;;8.82;67.81;97745.91;4912299;28;20097;-84
2022/05/13 02:44:25;;;;;;;0.57;0.57;;;;;;;8.79;68.28;97749.94;4909939;29;19962;-84
2022/05/13 02:48:02;;;;;;;0.50;0.50;;;;;;;8.87;67.96;97770.16;4898467;29;20061;-85
2022/05/13 02:50:47;;;;;;;0.50;0.50;;;;;;;8.83;67.68;97755.59;4905432;29;20159;-84
2022/05/13 02:53:32;;;;;;;0.50;0.50;;;;;;;8.85;67.73;97753.44;4909458;29;20484;-83
2022/05/13 02:56:35;;;;;;;0.50;0.50;;;;;;;8.97;67.73;97762.09;4909530;29;20064;-84
2022/05/13 02:59:23;;;;;;;0.50;0.50;;;;;;;8.92;67.30;97748.63;4909690;29;20061;-84
2022/05/13 03:02:14;;;;;;;0.50;0.50;;;;;;;8.86;67.42;97766.66;4909451;29;20083;-85
2022/05/13 03:08:43;;;;;;;0.50;0.50;;;;;;;8.96;67.81;97763.16;4919151;29;20426;-84
2022/05/13 03:12:01;;;;;;;0.50;0.50;;;;;;;9.01;67.62;97767.75;4970148;28;20087;-84
2022/05/13 03:14:58;;;;;;;0.50;0.50;;;;;;;8.99;68.04;97791.41;5028028;28;20057;-84
2022/05/13 03:17:35;;;;;;;0.50;0.50;;;;;;;8.90;68.43;97783.88;5014327;28;20136;-84
2022/05/13 03:20:21;;;;;;;0.55;0.55;;;;;;;8.80;69.34;97793.78;5014405;28;20053;-84
2022/05/13 03:26:09;;;;;;;0.50;0.50;;;;;;;8.71;69.99;97789.97;5039469;28;20428;-84
2022/05/13 03:28:57;;;;;;;0.50;0.50;;;;;;;8.67;70.31;97806.63;5031716;28;20511;-86
2022/05/13 03:31:43;;;;;;;0.60;0.60;;;;;;;8.65;69.95;97789.13;5031591;28;20540;-85
2022/05/13 03:34:48;;;;;;;0.60;0.60;;;;;;;8.68;70.00;97796.69;5011115;28;20100;-87
2022/05/13 03:38:07;;;;;;;0.60;0.60;;;;;;;8.77;70.01;97799.69;5045573;28;20088;-85
2022/05/13 03:41:42;;;;;;;0.60;0.60;;;;;;;8.84;69.26;97794.88;5042745;28;20044;-84
2022/05/13 03:44:47;;;;;;;0.60;0.60;;;;;;;8.84;69.43;97792.19;5095124;28;20472;-84
2022/05/13 03:49:57;;;;;;;;;;;;;;;;;;;;;
2022/05/13 03:53:18;;;;;;;0.50;0.50;;;;;;;8.81;69.11;97801.59;5074483;28;20134;-85
2022/05/13 03:56:59;;;;;;;0.60;0.60;;;;;;;8.81;68.77;97788.16;4955776;28;20062;-85
2022/05/13 04:00:20;;;;;;;0.60;0.60;;;;;;;8.86;68.96;97808.88;4958751;28;20047;-85
2022/05/13 04:11:02;;;;;;;0.63;0.63;;;;;;;9.01;68.67;97816.19;4952752;29;20055;-84
2022/05/13 04:16:50;;;;;;;0.60;0.60;;;;;;;9.32;67.29;97814.44;4960521;28;20433;-84
2022/05/13 04:20:00;;;;;;;0.60;0.60;;;;;;;9.14;67.69;97823.81;4971501;28;20572;-84
2022/05/13 04:22:34;;;;;;;0.60;0.60;;;;;;;9.24;67.12;97831.06;4991309;28;20113;-84
2022/05/13 04:25:17;;;;;;;0.60;0.60;;;;;;;9.14;67.05;97826.50;4991085;28;20054;-84
2022/05/13 04:27:51;;;;;;;0.60;0.60;;;;;;;9.21;66.92;97815.47;5043324;28;20497;-84
2022/05/13 04:30:30;;;;;;;0.60;0.60;;;;;;;9.30;66.31;97832.72;5049913;28;20048;-84
2022/05/13 04:33:23;;;;;;;0.60;0.60;;;;;;;9.52;65.72;97838.72;5085756;28;20052;-84
2022/05/13 04:36:12;;;;;;;0.60;0.60;;;;;;;9.46;65.53;97837.06;5092922;28;20055;-84
2022/05/13 04:38:57;;;;;;;0.60;0.60;;;;;;;9.80;63.76;97828.53;5093678;28;20058;-84
2022/05/13 04:44:21;;;;;;;0.50;0.50;;;;;;;10.02;63.44;97836.34;5092251;28;20421;-84
2022/05/13 04:48:15;;;;;;;0.50;0.50;;;;;;;9.79;63.28;97843.06;5064526;28;20049;-84
2022/05/13 04:49:58;;;;;;;0.50;0.50;;;;;;;9.60;63.57;97836.59;5063695;28;20103;-84
2022/05/13 04:53:48;;;;;;;0.60;0.60;;;;;;;9.62;64.02;97834.41;5048131;28;20049;-84
2022/05/13 04:56:49;;;;;;;0.60;0.60;;;;;;;9.85;63.33;97812.38;5051988;28;20079;-83
2022/05/13 04:59:30;;;;;;;0.60;0.60;;;;;;;10.07;61.85;97830.16;4991166;28;20517;-84
2022/05/13 05:02:12;;;;;;;0.60;0.60;;;;;;;10.03;61.70;97815.59;5000408;28;20049;-84
2022/05/13 05:04:59;;;;;;;0.50;0.50;;;;;;;10.16;61.43;97831.22;5010185;28;20157;-84
2022/05/13 05:07:58;;;;;;;0.60;0.60;;;;;;;10.31;61.33;97838.53;5010368;28;20054;-84
2022/05/13 05:10:42;;;;;;;0.50;0.50;;;;;;;10.40;61.55;97837.69;4996860;28;20069;-84
2022/05/13 05:13:35;;;;;;;0.50;0.50;;;;;;;10.48;61.26;97849.03;5001775;28;20081;-85
2022/05/13 05:16:22;;;;;;;0.60;0.60;;;;;;;10.41;60.65;97846.63;5023112;28;20085;-84
2022/05/13 05:19:06;;;;;;;0.50;0.50;;;;;;;10.32;60.66;97842.84;5012086;28;20235;-84
2022/05/13 05:21:45;;;;;;;0.50;0.50;;;;;;;10.43;60.66;97851.72;5027148;28;20419;-85
2022/05/13 05:24:36;;;;;;;0.50;0.50;;;;;;;10.52;60.48;97840.13;5016562;28;20124;-85
2022/05/13 05:27:37;;;;;;;0.50;0.50;;;;;;;10.68;60.46;97838.19;5016879;28;20049;-84
2022/05/13 05:30:27;;;;;;;0.50;0.50;;;;;;;10.72;59.47;97847.38;5027276;28;20064;-84
2022/05/13 05:32:59;;;;;;;0.60;0.60;;;;;;;10.68;59.30;97848.19;4982237;28;20080;-84
2022/05/13 05:35:44;;;;;;;0.60;0.60;;;;;;;10.87;58.30;97875.41;5037683;28;20048;-84
2022/05/13 05:38:24;;;;;;;0.50;0.50;;;;;;;10.70;58.16;97848.72;5083536;28;20051;-84
2022/05/13 05:41:16;;;;;;;0.50;0.50;;;;;;;10.73;58.17;97854.38;5083315;28;20062;-84
2022/05/13 05:43:57;;;;;;;0.60;0.60;;;;;;;10.71;57.51;97870.03;5022705;28;20048;-83
2022/05/13 05:46:49;;;;;;;0.50;0.50;;;;;;;10.69;57.83;97861.41;5089940;28;20213;-84
2022/05/13 05:49:45;;;;;;;0.50;0.50;;;;;;;10.46;58.75;97846.63;5040374;28;20518;-84
2022/05/13 06:00:47;;;;;;;0.50;0.50;;;;;;;11.03;56.87;97866.16;5084733;28;20055;-85
2022/05/13 06:04:02;;;;;;;0.50;0.50;;;;;;;11.11;56.93;97878.28;4997381;28;20057;-85
2022/05/13 06:07:57;;;;;;;0.60;0.60;;;;;;;11.16;56.76;97857.47;5004925;28;20058;-87
2022/05/13 06:11:27;;;;;;;0.60;0.60;;;;;;;11.23;56.48;97887.69;4947950;28;20638;-87
2022/05/13 06:14:33;;;;;;;0.50;0.50;;;;;;;11.01;57.41;97884.53;4951903;28;20062;-84
2022/05/13 06:17:24;;;;;;;0.60;0.60;;;;;;;11.32;56.32;97869.03;4969006;28;20086;-85
2022/05/13 06:20:30;;;;;;;0.50;0.50;;;;;;;11.52;55.52;97857.34;4968305;28;20134;-88
2022/05/13 06:23:31;;;;;;;0.60;0.60;;;;;;;11.68;55.45;97883.19;4964214;28;20055;-86
2022/05/13 06:26:08;;;;;;;0.60;0.60;;;;;;;11.73;55.83;97882.34;4956252;28;20051;-85
2022/05/13 06:28:47;;;;;;;0.50;0.50;;;;;;;11.70;55.12;97885.63;4948125;28;20146;-85
2022/05/13 06:31:16;;;;;;;0.50;0.50;;;;;;;11.42;56.26;97876.28;4944339;29;20055;-84
2022/05/13 06:33:51;;;;;;;0.43;0.43;;;;;;;11.34;56.24;97888.47;4946741;29;20106;-86
2022/05/13 06:37:06;;;;;;;0.60;0.60;;;;;;;11.62;55.51;97856.44;4946302;29;20058;-85
2022/05/13 06:40:26;;;;;;;0.60;0.60;;;;;;;12.14;53.81;97888.31;4981295;28;20143;-84
2022/05/13 06:43:13;;;;;;;0.50;0.50;;;;;;;12.12;53.93;97895.09;5012088;28;20054;-82
2022/05/13 06:46:37;;;;;;;0.70;0.70;;;;;;;12.36;53.36;97884.38;5038639;28;20111;-83
2022/05/13 06:49:31;;;;;;;0.50;0.50;;;;;;;12.20;53.74;97899.91;5057467;28;20066;-82
2022/05/13 06:52:14;;;;;;;0.50;0.50;;;;;;;11.99;53.50;97879.50;5067347;28;20075;-85
2022/05/13 06:55:29;;;;;;;0.50;0.50;;;;;;;11.90;53.89;97890.09;5072116;28;20053;-83
2022/05/13 06:58:09;;;;;;;0.65;0.65;;;;;;;11.84;54.23;97870.38;5079670;28;20050;-85
2022/05/13 07:00:52;;;;;;;0.60;0.60;;;;;;;11.88;54.55;97876.06;5069897;28;20049;-84
2022/05/13 07:03:53;;;;;;;0.50;0.50;;;;;;;12.07;53.91;97898.63;5046103;28;20056;-84
2022/05/13 07:06:31;;;;;;;0.60;0.60;;;;;;;12.02;53.98;97882.44;5029363;28;20498;-85
2022/05/13 07:09:16;;;;;;;0.50;0.50;;;;;;;12.28;53.51;97871.44;5039005;28;20106;-85
2022/05/13 07:12:16;;;;;;;0.50;0.50;;;;;;;12.18;54.34;97895.84;5047817;28;20045;-84
2022/05/13 07:14:54;;;;;;;0.60;0.60;;;;;;;12.67;53.11;97893.03;5040617;28;20046;-85
2022/05/13 07:18:16;;;;;;;0.60;0.60;;;;;;;12.73;52.33;97889.16;5040678;28;20298;-84
2022/05/13 07:21:07;;;;;;;0.50;0.50;;;;;;;12.48;52.51;97883.97;5006102;28;20053;-86
2022/05/13 07:23:44;;;;;;;0.52;0.52;;;;;;;12.60;52.07;97878.22;5040862;28;20144;-84
2022/05/13 07:26:39;;;;;;;0.60;0.60;;;;;;;12.70;51.66;97878.09;5043931;28;20053;-85
2022/05/13 07:29:12;;;;;;;0.50;0.50;;;;;;;12.55;52.10;97887.97;5046752;28;20072;-85
2022/05/13 07:31:55;;;;;;;0.60;0.60;;;;;;;12.93;52.19;97892.75;5042301;28;20076;-85
2022/05/13 07:35:02;;;;;;;0.50;0.50;;;;;;;13.03;52.06;97881.81;5026311;28;20413;-84
2022/05/13 07:37:56;;;;;;;0.50;0.50;;;;;;;13.11;51.52;97869.56;5049025;28;20111;-85
2022/05/13 07:41:17;;;;;;;0.60;0.60;;;;;;;13.33;50.47;97893.44;5064449;28;20156;-83
2022/05/13 07:43:59;;;;;;;0.50;0.50;;;;;;;12.99;51.44;97892.44;5073022;28;20148;-84
2022/05/13 07:46:52;;;;;;;0.60;0.60;;;;;;;13.54;49.90;97883.16;5075613;28;20048;-84
2022/05/13 07:49:56;;;;;;;0.50;0.50;;;;;;;13.58;49.28;97889.63;5056711;28;20055;-85
2022/05/13 07:52:49;;;;;;;0.50;0.50;;;;;;;13.61;48.66;97883.59;5073546;28;20052;-84
2022/05/13 07:55:42;;;;;;;0.50;0.50;;;;;;;13.50;49.02;97885.66;5083603;28;20082;-84
2022/05/13 07:58:57;;;;;;;0.80;0.80;;;;;;;13.86;47.88;97885.16;5064988;28;20035;-85
2022/05/13 08:02:00;;;;;;;0.50;0.50;;;;;;;14.25;46.86;97863.13;5081338;28;20125;-85
2022/05/13 08:05:05;;;;;;;0.55;0.55;;;;;;;13.74;47.46;97891.00;5052584;28;20507;-85
2022/05/13 08:08:32;;;;;;;0.50;0.50;;;;;;;13.50;47.44;97899.19;5073504;28;20045;-85
2022/05/13 08:11:16;;;;;;;0.80;0.80;;;;;;;13.76;46.72;97886.09;5074594;28;20058;-84
2022/05/13 08:14:01;;;;;;;0.80;0.80;;;;;;;14.25;45.75;97882.09;5072931;28;20048;-85
2022/05/13 08:16:35;;;;;;;0.60;0.60;;;;;;;14.15;45.69;97903.97;5086031;28;20154;-85
2022/05/13 08:19:08;;;;;;;0.75;0.75;;;;;;;14.05;45.72;97896.00;5076438;28;20063;-85
2022/05/13 08:21:53;;;;;;;0.73;0.73;;;;;;;14.55;44.72;97880.03;5093376;28;20058;-84
2022/05/13 08:25:13;;;;;;;0.80;0.80;;;;;;;15.08;43.26;97878.81;5046554;28;20511;-85
2022/05/13 08:27:49;;;;;;;0.60;0.60;;;;;;;15.04;42.84;97865.03;5075317;28;20071;-84
2022/05/13 08:30:26;;;;;;;0.50;0.50;;;;;;;14.82;43.85;97884.72;5092488;28;20048;-85
2022/05/13 08:33:16;;;;;;;0.50;0.50;;;;;;;14.61;44.24;97878.84;5074780;28;20048;-85
2022/05/13 08:36:04;;;;;;;0.53;0.53;;;;;;;14.51;44.90;97870.88;5077997;28;20055;-85
2022/05/13 08:39:27;;;;;;;0.90;0.90;;;;;;;15.38;42.94;97904.59;5071477;28;20044;-84
2022/05/13 08:42:41;;;;;;;0.50;0.50;;;;;;;15.25;42.73;97881.75;5092731;28;20058;-85
2022/05/13 08:45:28;;;;;;;0.50;0.50;;;;;;;14.79;43.49;97879.91;5077231;28;20055;-84
2022/05/13 08:48:15;;;;;;;0.50;0.50;;;;;;;14.78;43.72;97893.78;5077196;28;20048;-85
2022/05/13 08:51:13;;;;;;;0.50;0.50;;;;;;;14.96;43.19;97895.59;5059083;28;20434;-85
2022/05/13 08:54:15;;;;;;;0.50;0.50;;;;;;;14.84;42.88;97887.97;5077270;28;20518;-85
2022/05/13 08:57:03;;;;;;;0.80;0.80;;;;;;;15.64;42.14;97895.91;5092186;28;20048;-84
2022/05/13 09:00:05;;;;;;;0.90;0.90;;;;;;;16.20;40.42;97900.13;5075493;28;20422;-86
2022/05/13 09:06:43;;;;;;;0.30;0.30;;;;;;;15.10;41.72;97899.16;5080513;28;20056;-85
2022/05/13 09:09:37;;;;;;;0.50;0.50;;;;;;;15.06;42.25;97897.31;5076095;28;20476;-85
2022/05/13 09:12:30;;;;;;;0.50;0.50;;;;;;;14.81;41.54;97882.31;5077159;28;20093;-84
2022/05/13 09:15:25;;;;;;;0.50;0.50;;;;;;;14.79;41.59;97890.75;5075790;28;20561;-84
2022/05/13 09:18:41;;;;;;;0.40;0.40;;;;;;;14.78;41.67;97866.59;5092417;28;20461;-85
2022/05/13 09:21:20;;;;;;;0.75;0.75;;;;;;;14.99;40.97;97908.59;5092244;28;20055;-85
2022/05/13 09:23:59;;;;;;;0.90;0.90;;;;;;;16.55;38.03;97889.50;5073063;28;20071;-84
2022/05/13 09:26:54;;;;;;;;;;;;;;;;;;;;;
2022/05/13 09:29:39;;;;;;;0.40;0.40;;;;;;;16.35;37.45;97877.97;5091600;28;20052;-85
2022/05/13 09:32:28;;;;;;;0.40;0.40;;;;;;;15.86;38.71;97890.56;5091672;28;20048;-85
2022/05/13 09:35:40;;;;;;;0.40;0.40;;;;;;;15.55;39.23;97895.81;5092002;28;20044;-84
2022/05/13 09:38:18;;;;;;;0.40;0.40;;;;;;;15.23;39.93;97883.16;5057954;28;20410;-84
2022/05/13 09:41:06;;;;;;;0.50;0.50;;;;;;;15.23;39.27;97877.72;5074984;28;20048;-84
2022/05/13 09:43:44;;;;;;;0.50;0.50;;;;;;;15.84;38.20;97900.94;5073053;28;20425;-84
2022/05/13 09:46:35;;;;;;;0.45;0.45;;;;;;;15.57;38.51;97894.41;5058244;28;20055;-85
2022/05/13 09:49:29;;;;;;;0.57;0.57;;;;;;;15.61;38.96;97900.03;5090990;28;20533;-84
2022/05/13 09:52:19;;;;;;;0.50;0.50;;;;;;;15.88;38.79;97893.78;5098323;28;20054;-84
2022/05/13 09:55:22;;;;;;;0.50;0.50;;;;;;;15.90;37.44;97891.56;5089700;28;20064;-85
2022/05/13 09:58:37;;;;;;;0.40;0.40;;;;;;;15.54;38.65;97905.88;5077144;28;20076;-84
2022/05/13 10:01:09;;;;;;;0.50;0.50;;;;;;;15.24;39.30;97929.03;5100968;28;20095;-84
2022/05/13 10:04:15;;;;;;;0.50;0.50;;;;;;;15.29;39.26;97895.53;4739847;28;10000369;-85
2022/05/13 10:07:05;;;;;;;0.40;0.40;;;;;;;15.06;39.98;97917.16;5069682;28;20083;-84
2022/05/13 10:16:39;;;;;;;0.50;0.50;;;;;;;14.79;40.70;97915.22;5072854;28;20048;-86
2022/05/13 10:19:51;;;;;;;0.40;0.40;;;;;;;14.89;41.01;97900.66;5081634;28;20052;-86
2022/05/13 10:22:56;;;;;;;0.40;0.40;;;;;;;14.90;40.45;97889.47;5097050;28;20475;-85
2022/05/13 10:25:47;;;;;;;0.40;0.40;;;;;;;14.74;39.93;97902.53;5096309;28;20056;-87
2022/05/13 10:28:43;;;;;;;0.40;0.40;;;;;;;14.65;40.10;97927.94;5098002;28;20054;-86
2022/05/13 10:31:20;;;;;;;0.65;0.65;;;;;;;14.46;43.89;97906.25;5070356;28;20051;-87
2022/05/13 10:34:28;;;;;;;1.10;1.10;;;;;;;16.36;38.69;97919.66;5088063;28;20062;-85
2022/05/13 10:37:43;;;;;;;0.80;0.80;;;;;;;17.90;35.82;97894.53;5088682;28;20063;-86
2022/05/13 10:40:30;;;;;;;0.70;0.70;;;;;;;18.08;35.22;97901.66;5096474;28;20044;-85
2022/05/13 10:43:41;;;;;;;0.40;0.40;;;;;;;18.51;34.23;97903.56;5093599;28;20154;-85
2022/05/13 10:47:05;;;;;;;0.40;0.40;;;;;;;17.34;35.85;97907.88;5092503;28;20082;-84
2022/05/13 10:50:07;;;;;;;0.93;0.93;;;;;;;18.24;34.30;97888.31;5008939;28;20053;-84
2022/05/13 10:53:44;;;;;;;0.90;0.90;;;;;;;19.83;31.75;97891.03;5028614;28;20058;-85
2022/05/13 10:56:57;;;;;;;0.30;0.30;;;;;;;18.65;33.21;97880.72;5026153;28;20140;-85
2022/05/13 11:00:10;;;;;;;0.30;0.30;;;;;;;16.60;36.02;97892.09;5010742;28;20079;-85
2022/05/13 11:03:14;;;;;;;0.30;0.30;;;;;;;15.69;37.99;97928.44;5028876;28;20053;-85
2022/05/13 11:06:40;;;;;;;0.40;0.40;;;;;;;15.15;38.59;97928.94;5035181;28;20053;-85
2022/05/13 11:09:33;;;;;;;0.40;0.40;;;;;;;14.08;45.47;97947.78;5013271;28;20084;-85
2022/05/13 11:12:31;;;;;;;0.40;0.40;;;;;;;11.90;52.81;97976.59;5025118;28;20072;-84
2022/05/13 11:15:58;;;;;;;0.50;0.50;;;;;;;11.31;54.07;97951.16;5014465;28;20042;-84
2022/05/13 11:19:07;;;;;;;0.50;0.50;;;;;;;11.89;52.85;97937.97;5029490;28;20053;-84
2022/05/13 11:22:11;;;;;;;1.30;1.20;;;;;;;13.55;48.85;97930.84;5011808;28;20503;-83
2022/05/13 11:27:45;;;;;;;1.08;1.08;;;;;;;16.95;40.36;97922.28;5097504;28;20064;-85
2022/05/13 11:30:17;;;;;;;1.00;1.00;;;;;;;17.80;37.37;97903.03;5102567;28;20184;-82
2022/05/13 11:32:53;;;;;;;0.98;0.98;;;;;;;18.24;36.52;97915.63;5103633;28;20577;-83
2022/05/13 11:35:28;;;;;;;0.88;0.88;;;;;;;19.03;34.75;97898.00;5066774;28;20540;-83
2022/05/13 11:37:59;;;;;;;0.90;0.90;;;;;;;19.45;33.24;97902.81;5089463;28;20429;-83
2022/05/13 11:40:41;;;;;;;0.90;0.90;;;;;;;19.68;33.04;97917.06;5096289;28;20063;-86
2022/05/13 11:43:25;;;;;;;1.00;1.00;;;;;;;20.28;32.32;97901.31;5095662;28;20040;-84
2022/05/13 11:45:55;;;;;;;1.00;1.00;;;;;;;20.74;32.06;97902.22;5084726;28;20052;-84
2022/05/13 11:48:34;;;;;;;0.90;0.90;;;;;;;21.56;31.01;97885.78;5096869;28;20093;-83
2022/05/13 11:51:24;;;;;;;0.90;0.90;;;;;;;22.27;29.90;97884.41;5072810;28;20468;-82
2022/05/13 11:54:01;;;;;;;0.90;0.90;;;;;;;21.78;29.76;97894.69;5077255;28;20048;-82
2022/05/13 11:56:30;;;;;;;0.90;0.90;;;;;;;21.37;30.77;97882.75;5060273;28;20525;-83
2022/05/13 11:59:35;;;;;;;0.90;0.90;;;;;;;22.78;29.87;97892.09;5098882;28;20044;-83
2022/05/13 12:02:05;;;;;;;0.30;0.30;;;;;;;22.11;29.29;97896.47;5094393;28;20151;-82
2022/05/13 12:04:36;;;;;;;0.90;0.90;;;;;;;21.36;29.66;97873.75;5098718;28;20783;-83
2022/05/13 12:07:56;;;;;;;0.30;0.30;;;;;;;20.00;32.11;97893.63;5069497;28;20139;-83
2022/05/13 12:11:02;;;;;;;0.30;0.30;;;;;;;17.81;36.02;97902.72;5097078;28;20100;-82
2022/05/13 12:13:32;;;;;;;0.30;0.30;;;;;;;16.52;39.09;97895.56;5089068;28;20517;-83
2022/05/13 12:16:24;;;;;;;0.30;0.30;;;;;;;15.86;40.81;97908.81;5095188;28;20582;-82
2022/05/13 12:19:11;;;;;;;0.30;0.30;;;;;;;15.43;42.08;97917.28;5101485;28;20043;-83
2022/05/13 12:22:04;;;;;;;0.30;0.30;;;;;;;14.10;49.67;97950.19;5079779;28;20096;-82
2022/05/13 12:24:54;;;;;;;1.00;1.00;;;;;;;13.56;50.46;97913.50;4734262;28;9999951;-83
2022/05/13 12:27:34;;;;;;;1.17;1.17;;;;;;;14.81;45.78;97923.03;5085517;28;20477;-82
2022/05/13 12:30:29;;;;;;;1.02;1.02;;;;;;;16.36;41.45;97928.63;5090379;28;20109;-83
2022/05/13 12:33:19;;;;;;;1.05;1.05;;;;;;;18.00;41.90;97926.19;5086695;28;20404;-83
2022/05/13 12:39:06;;;;;;;0.88;0.88;;;;;;;19.15;38.03;97921.13;5094817;28;20058;-83
2022/05/13 12:41:43;;;;;;;0.40;0.40;;;;;;;17.36;43.49;97940.28;5064843;28;20051;-80
2022/05/13 12:44:14;;;;;;;0.40;0.40;;;;;;;16.49;46.43;97939.75;5075940;28;20044;-81
2022/05/13 12:46:47;;;;;;;0.40;0.40;;;;;;;16.18;47.24;97940.44;5089563;28;20087;-82
2022/05/13 12:49:14;;;;;;;0.40;0.40;;;;;;;16.15;45.24;97932.91;5075695;28;20089;-81
2022/05/13 12:51:47;;;;;;;0.40;0.40;;;;;;;16.09;45.73;97945.03;5085556;28;20067;-82
2022/05/13 12:54:21;;;;;;;0.40;0.40;;;;;;;15.35;46.74;97935.09;5094601;28;20520;-82
2022/05/13 12:56:52;;;;;;;0.50;0.50;;;;;;;15.07;46.42;97947.88;5092741;28;20147;-80
2022/05/13 12:59:24;;;;;;;0.50;0.50;;;;;;;15.49;44.73;97929.66;5091250;28;20158;-81
2022/05/13 13:01:57;;;;;;;0.50;0.50;;;;;;;15.47;44.73;97942.75;5075768;28;20055;-82
2022/05/13 13:04:25;;;;;;;1.10;1.10;;;;;;;18.03;40.64;97939.19;5067153;28;20165;-82
2022/05/13 13:06:53;;;;;;;0.90;0.90;;;;;;;19.45;36.21;97925.50;5069765;28;20134;-82
2022/05/13 13:09:33;;;;;;;1.00;1.00;;;;;;;19.77;34.99;97926.00;5097057;28;20053;-82
2022/05/13 13:12:06;;;;;;;1.00;1.00;;;;;;;20.62;34.18;97940.56;5086120;28;20139;-82
2022/05/13 13:15:01;;;;;;;0.90;0.90;;;;;;;20.83;33.27;97913.91;5075740;28;20051;-82
2022/05/13 13:17:35;;;;;;;0.90;0.90;;;;;;;20.71;32.86;97920.16;5076693;28;20075;-83
2022/05/13 13:20:05;;;;;;;0.90;0.90;;;;;;;20.32;33.02;97903.06;5091483;28;20051;-83
2022/05/13 13:22:37;;;;;;;0.90;0.90;;;;;;;20.41;32.90;97926.84;5091823;28;20052;-83
2022/05/13 13:25:24;;;;;;;0.90;0.90;;;;;;;20.39;33.29;97923.66;5094695;28;20181;-84
2022/05/13 13:27:54;;;;;;;1.00;1.00;;;;;;;21.24;32.34;97927.81;5090525;28;20052;-84
2022/05/13 13:30:23;;;;;;;0.93;0.93;;;;;;;21.48;32.10;97913.34;5062847;28;20063;-85
2022/05/13 13:32:51;;;;;;;0.90;0.90;;;;;;;21.60;31.97;97943.56;5070683;28;20088;-83
2022/05/13 13:35:34;;;;;;;0.90;0.90;;;;;;;22.37;30.92;97905.09;5092258;28;20206;-82
2022/05/13 13:38:03;;;;;;;0.90;0.90;;;;;;;22.72;30.18;97918.25;5095315;28;20047;-84
2022/05/13 13:40:43;;;;;;;0.70;0.70;;;;;;;22.34;30.09;97938.00;5087316;28;20160;-83
2022/05/13 13:43:13;;;;;;;0.90;0.90;;;;;;;21.82;31.07;97939.53;5076843;28;20314;-82
2022/05/13 13:45:44;;;;;;;0.90;0.90;;;;;;;21.59;31.85;97939.19;5081768;28;20073;-82
2022/05/13 13:48:31;;;;;;;0.40;0.40;;;;;;;19.70;34.85;97928.47;5022429;28;20136;-82
2022/05/13 13:50:59;;;;;;;0.30;0.30;;;;;;;18.70;36.71;97932.47;5090957;28;20056;-82
2022/05/13 13:53:41;;;;;;;0.40;0.40;;;;;;;18.45;36.78;97939.53;5073271;28;20047;-83
2022/05/13 13:56:14;;;;;;;1.10;1.10;;;;;;;19.96;32.56;97946.69;5056624;28;20058;-84
2022/05/13 13:58:55;;;;;;;1.00;1.00;;;;;;;21.94;27.89;97945.00;5090168;28;20192;-83
2022/05/13 14:01:25;;;;;;;0.43;0.43;;;;;;;22.12;27.05;97947.50;5090642;28;20138;-82
2022/05/13 14:04:12;;;;;;;0.90;0.90;;;;;;;22.66;26.39;97944.38;5090112;28;20090;-83
2022/05/13 14:06:42;;;;;;;0.80;0.80;;;;;;;23.27;25.24;97944.13;5090233;28;20101;-83
2022/05/13 14:09:33;;;;;;;0.82;0.82;;;;;;;23.00;25.92;97964.22;5072993;28;20125;-82
2022/05/13 14:12:06;;;;;;;0.80;0.80;;;;;;;20.96;28.58;97955.88;5073071;28;20183;-83
2022/05/13 14:14:55;;;;;;;1.00;1.00;;;;;;;21.12;28.82;97948.59;5075882;28;20055;-82
2022/05/13 14:17:27;;;;;;;0.82;0.82;;;;;;;22.63;26.74;97969.84;5072788;28;20109;-83
2022/05/13 14:20:08;;;;;;;0.90;0.90;;;;;;;21.23;28.32;97957.19;5072942;28;20074;-82
2022/05/13 14:22:54;;;;;;;0.90;0.90;;;;;;;21.64;28.01;97967.22;5090833;28;20058;-82
2022/05/13 14:25:21;;;;;;;0.90;0.90;;;;;;;22.86;26.22;97968.13;5073529;28;20082;-83
2022/05/13 14:27:48;;;;;;;0.70;0.70;;;;;;;23.19;25.68;97969.03;5072526;28;20097;-81
2022/05/13 14:30:15;;;;;;;0.90;0.90;;;;;;;23.76;25.23;98001.59;5072582;28;20124;-83
2022/05/13 14:32:43;;;;;;;0.30;0.30;;;;;;;21.06;28.22;97969.16;5055308;28;20583;-82
2022/05/13 14:35:14;;;;;;;0.90;0.90;;;;;;;20.69;28.95;97966.28;5077273;28;20052;-82
2022/05/13 14:37:58;;;;;;;0.90;0.90;;;;;;;20.44;29.22;97987.25;5092812;28;20056;-81
2022/05/13 14:40:45;;;;;;;0.70;0.70;;;;;;;19.51;31.13;97978.09;5105282;28;20055;-81
2022/05/13 14:43:18;;;;;;;0.30;0.30;;;;;;;19.14;31.33;97963.25;5098213;28;20105;-81